createdAt,value
2022-10-29T00:00:43.594Z,13.18
2022-10-29T00:03:10.293Z,11.35
2022-10-29T00:05:36.948Z,12.80
2022-10-29T00:08:03.890Z,11.48
2022-10-29T00:10:30.553Z,11.38
2022-10-29T00:13:01.417Z,10.80
2022-10-29T00:15:28.193Z,11.60
2022-10-29T00:17:55.005Z,12.77
2022-10-29T00:20:21.892Z,12.35
2022-10-29T00:22:48.526Z,11.73
2022-10-29T00:25:15.176Z,11.65
2022-10-29T00:27:41.748Z,11.27
2022-10-29T00:30:09.130Z,11.32
2022-10-29T00:32:35.681Z,11.57
2022-10-29T00:35:02.249Z,12.15
2022-10-29T00:37:28.836Z,12.15
2022-10-29T00:39:55.420Z,12.60
2022-10-29T00:42:22.017Z,11.48
2022-10-29T00:44:48.599Z,11.98
2022-10-29T00:47:31.846Z,12.60
2022-10-29T00:50:12.365Z,11.32
2022-10-29T00:52:43.371Z,12.02
2022-10-29T00:55:15.612Z,11.48
2022-10-29T00:57:48.792Z,12.15
2022-10-29T01:00:17.370Z,13.05
2022-10-29T01:02:45.577Z,13.40
2022-10-29T01:05:15.178Z,13.98
2022-10-29T01:07:42.497Z,14.23
2022-10-29T01:10:10.821Z,14.20
2022-10-29T01:12:48.507Z,14.20
2022-10-29T01:15:40.640Z,13.65
2022-10-29T01:18:35.246Z,13.07
2022-10-29T01:21:37.764Z,12.25
2022-10-29T01:24:46.232Z,12.45
2022-10-29T01:27:31.534Z,12.27
2022-10-29T01:30:24.193Z,13.57
2022-10-29T01:33:02.252Z,12.95
2022-10-29T01:35:55.482Z,12.90
2022-10-29T01:38:46.260Z,12.88
2022-10-29T01:41:21.261Z,13.07
2022-10-29T01:43:53.635Z,13.63
2022-10-29T01:46:27.534Z,13.02
2022-10-29T01:49:01.020Z,12.15
2022-10-29T01:51:31.048Z,10.68
2022-10-29T01:53:59.977Z,13.07
2022-10-29T01:56:26.548Z,15.00
2022-10-29T01:58:57.712Z,13.88
2022-10-29T02:01:49.207Z,12.38
2022-10-29T02:04:32.519Z,12.55
2022-10-29T02:07:18.446Z,11.80
2022-10-29T02:10:02.261Z,11.52
2022-10-29T02:12:51.132Z,13.00
2022-10-29T02:15:23.573Z,11.93
2022-10-29T02:17:50.487Z,15.05
2022-10-29T02:20:18.226Z,13.90
2022-10-29T02:22:45.110Z,12.65
2022-10-29T02:25:11.945Z,11.20
2022-10-29T02:27:43.021Z,11.13
2022-10-29T02:30:10.396Z,12.68
2022-10-29T02:32:36.999Z,10.80
2022-10-29T02:35:04.310Z,11.20
2022-10-29T02:37:30.906Z,11.15
2022-10-29T02:39:57.611Z,11.77
2022-10-29T02:42:24.285Z,10.68
2022-10-29T02:44:50.958Z,10.35
2022-10-29T02:47:17.793Z,10.07
2022-10-29T02:49:44.442Z,10.00
2022-10-29T02:52:11.045Z,9.82
2022-10-29T02:54:39.157Z,9.63
2022-10-29T02:57:06.316Z,11.23
2022-10-29T02:59:32.903Z,10.88
2022-10-29T03:01:59.626Z,11.35
2022-10-29T03:04:26.286Z,11.40
2022-10-29T03:06:52.876Z,9.75
2022-10-29T03:09:19.441Z,10.90
2022-10-29T03:11:46.881Z,9.93
2022-10-29T03:14:13.493Z,11.63
2022-10-29T03:16:40.231Z,10.85
2022-10-29T03:19:06.835Z,11.45
2022-10-29T03:21:33.395Z,10.77
2022-10-29T03:24:00.165Z,9.68
2022-10-29T03:26:26.753Z,11.00
2022-10-29T03:28:53.374Z,10.38
2022-10-29T03:31:19.926Z,9.40
2022-10-29T03:33:46.613Z,10.52
2022-10-29T03:36:13.365Z,10.65
2022-10-29T03:38:39.956Z,10.05
2022-10-29T03:41:10.439Z,10.45
2022-10-29T03:43:38.988Z,12.57
2022-10-29T03:46:06.113Z,11.80
2022-10-29T03:48:33.269Z,12.48
2022-10-29T03:51:02.278Z,10.93
2022-10-29T03:53:29.748Z,11.32
2022-10-29T03:55:57.652Z,10.68
2022-10-29T03:58:25.495Z,11.20
2022-10-29T04:00:59.616Z,10.90
2022-10-29T04:03:28.100Z,10.02
2022-10-29T04:05:55.464Z,9.95
2022-10-29T04:08:22.337Z,9.10
2022-10-29T04:10:50.624Z,9.93
2022-10-29T04:13:18.187Z,11.90
2022-10-29T04:15:44.827Z,10.98
2022-10-29T04:18:12.401Z,11.82
2022-10-29T04:20:56.390Z,10.75
2022-10-29T04:29:00.236Z,11.30
2022-10-29T04:31:26.828Z,10.30
2022-10-29T04:33:53.967Z,11.35
2022-10-29T04:36:20.719Z,9.68
2022-10-29T04:38:47.315Z,9.43
2022-10-29T04:41:13.884Z,9.50
2022-10-29T04:43:40.447Z,9.40
2022-10-29T04:46:07.009Z,9.73
2022-10-29T04:48:33.629Z,9.35
2022-10-29T04:51:00.281Z,7.90
2022-10-29T04:53:27.458Z,9.55
2022-10-29T04:56:00.444Z,11.23
2022-10-29T04:58:27.810Z,12.40
2022-10-29T05:00:54.727Z,10.30
2022-10-29T05:03:21.395Z,9.48
2022-10-29T05:05:47.984Z,10.85
2022-10-29T05:08:15.349Z,9.73
2022-10-29T05:10:42.002Z,9.13
2022-10-29T05:13:11.949Z,10.88
2022-10-29T05:15:39.799Z,10.38
2022-10-29T05:18:07.278Z,8.32
2022-10-29T05:20:33.826Z,9.63
2022-10-29T05:23:01.882Z,8.25
2022-10-29T05:25:29.435Z,8.93
2022-10-29T05:28:11.474Z,10.95
2022-10-29T05:30:38.217Z,9.57
2022-10-29T05:33:08.803Z,9.52
2022-10-29T05:35:36.243Z,9.45
2022-10-29T05:38:03.169Z,8.93
2022-10-29T05:40:30.321Z,10.80
2022-10-29T05:42:57.449Z,8.70
2022-10-29T05:45:24.526Z,8.75
2022-10-29T05:48:01.996Z,8.20
2022-10-29T05:50:29.959Z,8.10
2022-10-29T05:53:01.861Z,8.65
2022-10-29T05:55:29.302Z,8.98
2022-10-29T05:57:57.343Z,8.10
2022-10-29T06:00:24.685Z,8.48
2022-10-29T06:02:51.314Z,8.95
2022-10-29T06:05:18.001Z,9.80
2022-10-29T06:07:44.633Z,8.52
2022-10-29T06:10:11.192Z,8.90
2022-10-29T06:12:37.785Z,8.23
2022-10-29T06:15:04.855Z,8.88
2022-10-29T06:17:31.426Z,9.95
2022-10-29T06:19:58.001Z,8.80
2022-10-29T06:22:24.660Z,9.75
2022-10-29T06:24:51.298Z,8.95
2022-10-29T06:27:17.887Z,8.25
2022-10-29T06:29:44.472Z,8.40
2022-10-29T06:32:11.082Z,8.38
2022-10-29T06:34:37.659Z,8.75
2022-10-29T06:37:04.280Z,8.88
2022-10-29T06:39:30.828Z,8.45
2022-10-29T06:41:57.440Z,8.30
2022-10-29T06:44:28.151Z,8.68
2022-10-29T06:46:54.767Z,8.63
2022-10-29T06:49:21.345Z,7.80
2022-10-29T06:51:48.236Z,7.93
2022-10-29T06:54:14.889Z,9.13
2022-10-29T06:56:41.485Z,8.63
2022-10-29T06:59:08.175Z,9.95
2022-10-29T07:01:34.883Z,10.15
2022-10-29T07:04:01.612Z,8.98
2022-10-29T07:06:28.881Z,9.23
2022-10-29T07:08:55.450Z,9.68
2022-10-29T07:11:22.012Z,9.05
2022-10-29T07:13:48.582Z,8.43
2022-10-29T07:16:15.140Z,8.13
2022-10-29T07:18:41.717Z,7.95
2022-10-29T07:21:09.693Z,7.15
2022-10-29T07:23:36.286Z,7.80
2022-10-29T07:26:02.905Z,7.53
2022-10-29T07:28:29.513Z,7.68
2022-10-29T07:30:59.890Z,7.03
2022-10-29T07:33:29.264Z,6.70
2022-10-29T07:35:58.234Z,7.00
2022-10-29T07:38:25.289Z,6.85
2022-10-29T07:40:53.080Z,6.68
2022-10-29T07:43:21.396Z,6.82
2022-10-29T07:45:49.975Z,7.20
2022-10-29T07:48:17.637Z,8.18
2022-10-29T07:50:44.245Z,7.35
2022-10-29T07:53:11.169Z,6.97
2022-10-29T07:55:37.847Z,7.05
2022-10-29T07:58:07.149Z,6.95
2022-10-29T08:00:39.478Z,7.20
2022-10-29T08:03:06.531Z,6.85
2022-10-29T08:05:33.241Z,7.00
2022-10-29T08:08:00.439Z,7.40
2022-10-29T08:10:27.581Z,7.30
2022-10-29T08:12:59.278Z,6.72
2022-10-29T08:15:31.740Z,7.18
2022-10-29T08:17:58.823Z,6.75
2022-10-29T08:20:27.168Z,7.10
2022-10-29T08:22:54.336Z,6.50
2022-10-29T08:25:21.220Z,6.70
2022-10-29T08:28:01.746Z,5.85
2022-10-29T08:30:28.938Z,5.80
2022-10-29T08:32:55.761Z,6.60
2022-10-29T08:35:22.715Z,6.57
2022-10-29T08:37:49.564Z,7.03
2022-10-29T08:40:24.872Z,6.30
2022-10-29T08:43:02.440Z,7.10
2022-10-29T08:45:40.924Z,7.32
2022-10-29T08:48:25.730Z,5.78
2022-10-29T08:51:17.873Z,6.82
2022-10-29T08:53:54.239Z,7.47
2022-10-29T08:56:35.831Z,7.50
2022-10-29T08:59:11.856Z,7.47
2022-10-29T09:01:38.703Z,6.38
2022-10-29T09:04:36.384Z,6.72
2022-10-29T09:07:02.923Z,5.97
2022-10-29T09:09:58.259Z,5.70
2022-10-29T09:12:56.471Z,5.20
2022-10-29T09:15:37.670Z,4.97
2022-10-29T09:18:29.311Z,4.88
2022-10-29T09:21:08.349Z,5.25
2022-10-29T09:23:55.152Z,5.20
2022-10-29T09:26:36.614Z,4.80
2022-10-29T09:29:42.517Z,4.63
2022-10-29T09:32:16.121Z,5.10
2022-10-29T09:34:47.905Z,4.57
2022-10-29T09:37:21.961Z,4.80
2022-10-29T09:39:49.212Z,4.60
2022-10-29T09:42:43.416Z,4.85
2022-10-29T09:45:15.975Z,4.28
2022-10-29T09:47:49.009Z,4.35
2022-10-29T09:50:36.123Z,4.43
2022-10-29T09:53:02.836Z,4.53
2022-10-29T09:55:40.583Z,4.35
2022-10-29T09:58:07.975Z,4.63
2022-10-29T10:00:35.231Z,4.45
2022-10-29T10:03:13.715Z,4.63
2022-10-29T10:06:09.604Z,4.53
2022-10-29T10:09:05.895Z,5.03
2022-10-29T10:11:42.026Z,4.60
2022-10-29T10:14:19.881Z,4.43
2022-10-29T10:16:46.649Z,4.75
2022-10-29T10:19:33.837Z,4.38
2022-10-29T10:22:03.880Z,4.70
2022-10-29T10:24:38.395Z,4.50
2022-10-29T10:27:19.935Z,4.18
2022-10-29T10:30:04.588Z,4.00
2022-10-29T10:32:31.873Z,3.47
2022-10-29T10:34:58.429Z,3.15
2022-10-29T10:37:25.078Z,3.20
2022-10-29T10:39:57.585Z,2.80
2022-10-29T10:42:32.424Z,3.15
2022-10-29T10:45:11.786Z,4.20
2022-10-29T10:47:43.411Z,3.50
2022-10-29T10:50:22.686Z,3.25
2022-10-29T10:52:50.241Z,3.05
2022-10-29T10:55:22.936Z,3.05
2022-10-29T10:57:59.205Z,2.95
2022-10-29T11:00:31.479Z,2.70
2022-10-29T11:03:06.685Z,2.80
2022-10-29T11:05:41.534Z,3.20
2022-10-29T11:08:15.338Z,2.88
2022-10-29T11:11:13.903Z,2.95
2022-10-29T11:13:41.819Z,3.03
2022-10-29T11:16:31.913Z,3.08
2022-10-29T11:19:21.096Z,2.95
2022-10-29T11:22:01.408Z,3.00
2022-10-29T11:24:41.364Z,3.10
2022-10-29T11:27:23.297Z,2.70
2022-10-29T11:30:12.139Z,2.90
2022-10-29T11:32:53.769Z,3.15
2022-10-29T11:35:40.749Z,2.83
2022-10-29T11:38:15.502Z,2.78
2022-10-29T11:40:52.953Z,2.63
2022-10-29T11:43:21.565Z,2.67
2022-10-29T11:46:00.947Z,2.80
2022-10-29T11:48:55.091Z,2.88
2022-10-29T11:51:27.736Z,3.00
2022-10-29T11:54:16.449Z,2.65
2022-10-29T11:57:03.513Z,2.85
2022-10-29T11:59:42.322Z,2.83
2022-10-29T12:02:35.254Z,2.70
2022-10-29T12:05:17.514Z,2.67
2022-10-29T12:08:07.387Z,2.65
2022-10-29T12:10:50.056Z,2.67
2022-10-29T12:13:28.604Z,2.65
2022-10-29T12:16:12.542Z,2.72
2022-10-29T12:18:50.270Z,2.65
2022-10-29T12:21:32.307Z,2.83
2022-10-29T12:24:22.198Z,2.85
2022-10-29T12:27:07.231Z,2.65
2022-10-29T12:29:44.106Z,2.58
2022-10-29T12:32:22.728Z,2.80
2022-10-29T12:35:06.829Z,3.05
2022-10-29T12:38:10.801Z,2.60
2022-10-29T12:40:44.339Z,2.20
2022-10-29T12:43:25.928Z,3.20
2022-10-29T12:46:32.097Z,2.85
2022-10-29T12:49:20.844Z,2.78
2022-10-29T12:52:02.204Z,2.45
2022-10-29T12:54:42.046Z,2.78
2022-10-29T12:57:14.767Z,2.80
2022-10-29T12:59:43.080Z,3.13
2022-10-29T13:02:18.802Z,2.88
2022-10-29T13:05:09.508Z,2.67
2022-10-29T13:07:45.337Z,2.72
2022-10-29T13:10:23.902Z,2.72
2022-10-29T13:12:56.174Z,2.60
2022-10-29T13:15:27.693Z,2.90
2022-10-29T13:17:57.064Z,2.60
2022-10-29T13:20:40.701Z,3.00
2022-10-29T13:23:29.064Z,2.60
2022-10-29T13:25:57.468Z,3.15
2022-10-29T13:28:23.980Z,2.67
2022-10-29T13:30:52.972Z,2.95
2022-10-29T13:33:28.773Z,2.50
2022-10-29T13:36:09.007Z,2.55
2022-10-29T13:38:35.512Z,2.83
2022-10-29T13:41:07.462Z,2.78
2022-10-29T13:43:34.332Z,2.30
2022-10-29T13:46:14.128Z,3.08
2022-10-29T13:48:42.177Z,2.55
2022-10-29T13:51:15.006Z,2.65
2022-10-29T13:54:11.158Z,2.58
2022-10-29T13:57:00.162Z,2.80
2022-10-29T13:59:48.014Z,2.60
2022-10-29T14:02:23.866Z,2.80
2022-10-29T14:04:56.176Z,2.80
2022-10-29T14:07:41.488Z,2.60
2022-10-29T14:10:18.490Z,2.53
2022-10-29T14:12:47.329Z,2.60
2022-10-29T14:15:15.305Z,2.88
2022-10-29T14:17:41.936Z,2.22
2022-10-29T14:20:20.694Z,3.08
2022-10-29T14:22:47.317Z,2.55
2022-10-29T14:25:32.232Z,2.17
2022-10-29T14:28:31.992Z,2.53
2022-10-29T14:31:04.888Z,3.55
2022-10-29T14:33:37.431Z,2.78
2022-10-29T14:36:22.489Z,2.88
2022-10-29T14:38:52.760Z,2.85
2022-10-29T14:41:21.127Z,3.42
2022-10-29T14:44:10.673Z,3.35
2022-10-29T14:46:38.836Z,2.85
2022-10-29T14:49:21.060Z,3.20
2022-10-29T14:51:57.007Z,2.50
2022-10-29T14:54:30.129Z,2.80
2022-10-29T14:57:28.024Z,3.40
2022-10-29T15:00:01.417Z,3.00
2022-10-29T15:02:39.317Z,3.00
2022-10-29T15:05:23.981Z,3.13
2022-10-29T15:07:50.888Z,3.38
2022-10-29T15:10:24.755Z,2.88
2022-10-29T15:12:52.723Z,3.75
2022-10-29T15:15:19.361Z,3.20
2022-10-29T15:18:17.361Z,3.30
2022-10-29T15:20:46.150Z,3.20
2022-10-29T15:23:20.652Z,3.60
2022-10-29T15:25:50.616Z,8.45
2022-10-29T15:28:29.921Z,11.57
2022-10-29T15:30:56.882Z,8.27
2022-10-29T15:33:28.696Z,4.82
2022-10-29T15:36:03.093Z,4.10
2022-10-29T15:38:29.609Z,4.15
2022-10-29T15:41:08.495Z,4.00
2022-10-29T15:43:49.408Z,3.72
2022-10-29T15:46:27.148Z,3.67
2022-10-29T15:48:54.065Z,3.80
2022-10-29T15:51:26.221Z,3.50
2022-10-29T15:53:55.486Z,3.58
2022-10-29T15:56:23.008Z,3.70
2022-10-29T15:58:49.809Z,4.15
2022-10-29T16:01:17.397Z,4.00
2022-10-29T16:03:44.451Z,4.15
2022-10-29T16:06:12.601Z,4.13
2022-10-29T16:08:51.829Z,4.28
2022-10-29T16:11:20.814Z,4.10
2022-10-29T16:13:54.679Z,4.80
2022-10-29T16:16:24.065Z,4.13
2022-10-29T16:18:51.391Z,4.25
2022-10-29T16:21:23.181Z,5.03
2022-10-29T16:23:51.366Z,5.57
2022-10-29T16:26:23.555Z,6.03
2022-10-29T16:28:52.577Z,6.15
2022-10-29T16:31:23.207Z,5.95
2022-10-29T16:33:52.119Z,5.40
2022-10-29T16:36:18.769Z,5.63
2022-10-29T16:38:45.380Z,5.35
2022-10-29T16:41:14.082Z,6.30
2022-10-29T16:43:42.216Z,5.90
2022-10-29T16:46:09.365Z,5.95
2022-10-29T16:48:36.172Z,6.38
2022-10-29T16:51:03.073Z,6.18
2022-10-29T16:53:29.660Z,7.40
2022-10-29T16:55:56.405Z,7.15
2022-10-29T16:58:23.057Z,6.55
2022-10-29T17:00:49.779Z,7.32
2022-10-29T17:03:18.091Z,8.07
2022-10-29T17:05:46.065Z,7.57
2022-10-29T17:08:13.690Z,7.43
2022-10-29T17:10:40.355Z,8.02
2022-10-29T17:13:08.969Z,7.47
2022-10-29T17:15:39.098Z,8.50
2022-10-29T17:18:05.665Z,7.40
2022-10-29T17:20:32.229Z,7.63
2022-10-29T17:22:58.810Z,8.65
2022-10-29T17:25:25.376Z,8.60
2022-10-29T17:27:51.927Z,9.32
2022-10-29T17:30:18.504Z,8.98
2022-10-29T17:32:45.084Z,10.63
2022-10-29T17:35:11.698Z,11.20
2022-10-29T17:37:38.250Z,11.95
2022-10-29T17:40:08.073Z,12.68
2022-10-29T17:42:35.245Z,11.20
2022-10-29T17:45:01.817Z,12.63
2022-10-29T17:47:29.211Z,12.80
2022-10-29T17:49:55.881Z,12.57
2022-10-29T17:52:22.549Z,12.45
2022-10-29T17:54:49.154Z,11.80
2022-10-29T17:57:15.722Z,11.77
2022-10-29T17:59:42.321Z,11.73
2022-10-29T18:02:11.256Z,11.65
2022-10-29T18:04:38.081Z,12.40
2022-10-29T18:07:04.733Z,11.82
2022-10-29T18:09:31.295Z,12.27
2022-10-29T18:11:57.923Z,15.93
2022-10-29T18:14:24.608Z,16.20
2022-10-29T18:16:51.415Z,16.05
2022-10-29T18:19:18.312Z,15.50
2022-10-29T18:21:45.029Z,13.95
2022-10-29T18:24:11.632Z,12.93
2022-10-29T18:26:38.468Z,13.68
2022-10-29T18:29:11.076Z,13.73
2022-10-29T18:31:40.197Z,13.15
2022-10-29T18:34:07.724Z,12.55
2022-10-29T18:36:37.753Z,11.98
2022-10-29T18:39:05.504Z,12.88
2022-10-29T18:41:32.639Z,12.15
2022-10-29T18:43:59.396Z,12.65
2022-10-29T18:46:26.824Z,12.15
2022-10-29T18:48:53.697Z,10.95
2022-10-29T18:51:26.211Z,11.68
2022-10-29T18:53:57.997Z,11.48
2022-10-29T18:56:27.142Z,10.35
2022-10-29T18:58:55.560Z,11.38
2022-10-29T19:01:24.866Z,10.40
2022-10-29T19:03:53.575Z,10.48
2022-10-29T19:06:21.065Z,10.63
2022-10-29T19:08:47.906Z,10.80
2022-10-29T19:11:19.858Z,9.57
2022-10-29T19:13:55.004Z,8.95
2022-10-29T19:16:22.544Z,8.80
2022-10-29T19:18:57.995Z,8.77
2022-10-29T19:21:26.028Z,9.00
2022-10-29T19:23:57.145Z,8.85
2022-10-29T19:26:25.084Z,8.65
2022-10-29T19:28:51.693Z,8.05
2022-10-29T19:31:22.443Z,8.15
2022-10-29T19:33:50.383Z,7.55
2022-10-29T19:36:18.179Z,8.07
2022-10-29T19:38:45.581Z,8.85
2022-10-29T19:41:12.397Z,7.90
2022-10-29T19:43:39.911Z,8.82
2022-10-29T19:46:08.785Z,10.55
2022-10-29T19:48:35.963Z,10.57
2022-10-29T19:51:03.798Z,11.48
2022-10-29T19:53:30.529Z,13.77
2022-10-29T19:55:57.434Z,11.32
2022-10-29T19:58:26.943Z,12.02
2022-10-29T20:00:54.551Z,11.73
2022-10-29T20:03:21.221Z,12.32
2022-10-29T20:05:47.832Z,11.48
2022-10-29T20:08:16.433Z,11.27
2022-10-29T20:10:43.514Z,12.02
2022-10-29T20:13:10.338Z,11.50
2022-10-29T20:15:40.105Z,11.15
2022-10-29T20:18:06.784Z,11.25
2022-10-29T20:20:33.394Z,10.40
2022-10-29T20:23:00.629Z,9.98
2022-10-29T20:25:27.922Z,10.63
2022-10-29T20:27:54.506Z,9.88
2022-10-29T20:30:22.113Z,9.57
2022-10-29T20:32:49.672Z,9.43
2022-10-29T20:35:17.065Z,9.45
2022-10-29T20:37:43.668Z,9.23
2022-10-29T20:40:11.229Z,10.15
2022-10-29T20:42:37.863Z,9.68
2022-10-29T20:45:04.830Z,9.90
2022-10-29T20:47:31.484Z,9.52
2022-10-29T20:49:58.118Z,9.07
2022-10-29T20:52:24.708Z,8.57
2022-10-29T20:54:51.284Z,9.35
2022-10-29T20:57:17.871Z,8.70
2022-10-29T20:59:45.327Z,10.35
2022-10-29T21:02:12.184Z,10.68
2022-10-29T21:04:39.283Z,10.20
2022-10-29T21:07:07.636Z,10.07
2022-10-29T21:09:34.698Z,9.35
2022-10-29T21:12:01.584Z,8.93
2022-10-29T21:14:29.588Z,9.55
2022-10-29T21:16:56.310Z,9.30
2022-10-29T21:19:23.033Z,9.82
2022-10-29T21:21:49.644Z,8.70
2022-10-29T21:24:17.746Z,9.10
2022-10-29T21:26:44.322Z,8.43
2022-10-29T21:29:10.893Z,8.65
2022-10-29T21:31:37.500Z,8.60
2022-10-29T21:34:04.082Z,8.45
2022-10-29T21:36:30.676Z,8.25
2022-10-29T21:38:57.270Z,8.57
2022-10-29T21:41:23.864Z,8.07
2022-10-29T21:43:50.438Z,7.80
2022-10-29T21:46:17.062Z,8.80
2022-10-29T21:48:43.651Z,8.43
2022-10-29T21:51:11.820Z,7.93
2022-10-29T21:53:38.495Z,7.95
2022-10-29T21:56:07.166Z,8.30
2022-10-29T21:58:34.184Z,7.60
2022-10-29T22:01:06.052Z,8.38
2022-10-29T22:03:34.207Z,7.70
2022-10-29T22:06:02.504Z,7.65
2022-10-29T22:08:29.068Z,7.90
2022-10-29T22:10:59.455Z,8.55
2022-10-29T22:13:30.540Z,8.30
2022-10-29T22:15:57.505Z,9.50
2022-10-29T22:18:25.025Z,11.73
2022-10-29T22:21:10.467Z,10.73
2022-10-29T22:23:41.053Z,9.15
2022-10-29T22:26:07.775Z,9.07
2022-10-29T22:28:34.400Z,8.60
2022-10-29T22:31:02.694Z,8.38
2022-10-29T22:33:30.400Z,8.60
2022-10-29T22:36:03.728Z,9.13
2022-10-29T22:38:30.370Z,8.65
2022-10-29T22:40:56.934Z,9.35
2022-10-29T22:43:23.515Z,9.65
2022-10-29T22:45:50.100Z,9.38
2022-10-29T22:48:16.669Z,8.85
2022-10-29T22:50:43.247Z,8.20
2022-10-29T22:53:09.862Z,8.70
2022-10-29T22:55:36.429Z,8.52
2022-10-29T22:58:03.064Z,8.85
2022-10-29T23:00:29.618Z,8.63
2022-10-29T23:02:56.525Z,8.38
2022-10-29T23:05:23.357Z,9.18
2022-10-29T23:07:49.930Z,9.23
2022-10-29T23:10:16.507Z,9.10
2022-10-29T23:12:43.080Z,9.13
2022-10-29T23:15:09.737Z,9.18
2022-10-29T23:17:36.299Z,8.75
2022-10-29T23:20:03.079Z,9.93
2022-10-29T23:22:29.654Z,10.55
2022-10-29T23:24:56.225Z,12.90
2022-10-29T23:27:22.893Z,13.90
2022-10-29T23:29:49.472Z,11.90
2022-10-29T23:32:16.036Z,12.18
2022-10-29T23:34:42.601Z,13.13
2022-10-29T23:37:10.139Z,13.13
2022-10-29T23:39:37.203Z,14.85
2022-10-29T23:42:03.928Z,12.93
2022-10-29T23:44:30.572Z,16.95
2022-10-29T23:46:57.119Z,15.05
2022-10-29T23:49:23.692Z,13.80
2022-10-29T23:51:50.276Z,13.52
2022-10-29T23:54:16.861Z,12.20
2022-10-29T23:56:43.469Z,12.55
2022-10-29T23:59:10.052Z,12.65
